createdAt,value
2022-09-17T00:01:49.080Z,99231.54
2022-09-17T00:04:31.519Z,99231.33
2022-09-17T00:07:13.312Z,99233.15
2022-09-17T00:09:55.106Z,99238.36
2022-09-17T00:12:36.899Z,99234.66
2022-09-17T00:15:18.794Z,99230.89
2022-09-17T00:18:00.634Z,99226.98
2022-09-17T00:20:45.455Z,99229.45
2022-09-17T00:23:27.349Z,99229.02
2022-09-17T00:26:09.142Z,99228.02
2022-09-17T00:28:55.748Z,99224.89
2022-09-17T00:31:37.708Z,99223.95
2022-09-17T00:34:19.642Z,99221.79
2022-09-17T00:37:01.434Z,99224.02
2022-09-17T00:39:43.228Z,99225.90
2022-09-17T00:42:25.124Z,99232.05
2022-09-17T00:45:07.941Z,99231.30
2022-09-17T00:47:59.258Z,99236.61
2022-09-17T00:50:43.753Z,99238.33
2022-09-17T00:53:25.816Z,99237.36
2022-09-17T00:56:19.489Z,99238.27
2022-09-17T00:59:03.715Z,99237.86
2022-09-17T01:01:46.615Z,99234.11
2022-09-17T01:04:28.553Z,99236.83
2022-09-17T01:07:30.621Z,99237.52
2022-09-17T01:10:36.376Z,99234.35
2022-09-17T01:13:33.426Z,99230.57
2022-09-17T01:16:42.561Z,99229.15
2022-09-17T01:19:36.337Z,99226.27
2022-09-17T01:22:27.037Z,99235.73
2022-09-17T01:25:28.599Z,99228.98
2022-09-17T01:28:33.737Z,99225.85
2022-09-17T01:31:36.253Z,99226.20
2022-09-17T01:34:32.035Z,99217.88
2022-09-17T01:37:30.823Z,99221.12
2022-09-17T01:40:24.677Z,99221.89
2022-09-17T01:43:25.443Z,99223.60
2022-09-17T01:46:18.332Z,99225.39
2022-09-17T01:49:05.412Z,99226.63
2022-09-17T01:51:49.765Z,99227.09
2022-09-17T01:54:42.362Z,99225.87
2022-09-17T01:57:40.897Z,99228.59
2022-09-17T02:00:23.927Z,99228.73
2022-09-17T02:03:17.365Z,99230.27
2022-09-17T02:06:06.033Z,99232.84
2022-09-17T02:09:04.730Z,99230.32
2022-09-17T02:11:52.342Z,99235.85
2022-09-17T02:14:40.389Z,99234.16
2022-09-17T02:17:32.093Z,99230.50
2022-09-17T02:20:17.662Z,99230.14
2022-09-17T02:23:08.772Z,99227.00
2022-09-17T02:25:57.475Z,99230.88
2022-09-17T02:28:51.555Z,99229.83
2022-09-17T02:31:33.590Z,99228.18
2022-09-17T02:34:15.837Z,99233.38
2022-09-17T02:37:01.207Z,99231.34
2022-09-17T02:39:43.562Z,99229.15
2022-09-17T02:43:04.041Z,99225.48
2022-09-17T02:46:41.266Z,99225.68
2022-09-17T02:50:01.734Z,99220.97
2022-09-17T02:53:08.309Z,99220.99
2022-09-17T02:56:13.853Z,99219.08
2022-09-17T02:59:04.663Z,99215.11
2022-09-17T03:02:01.463Z,99215.58
2022-09-17T03:04:47.055Z,99218.20
2022-09-17T03:07:29.402Z,99216.53
2022-09-17T03:10:11.395Z,99213.87
2022-09-17T03:12:54.007Z,99213.17
2022-09-17T03:15:35.903Z,99211.95
2022-09-17T03:18:17.697Z,99211.55
2022-09-17T03:20:59.797Z,99212.73
2022-09-17T03:23:41.795Z,99208.29
2022-09-17T03:26:23.592Z,99207.55
2022-09-17T03:29:05.793Z,99207.54
2022-09-17T03:31:48.813Z,99208.92
2022-09-17T03:34:30.607Z,99207.96
2022-09-17T03:37:12.605Z,99213.23
2022-09-17T03:39:54.467Z,99210.89
2022-09-17T03:42:36.294Z,99211.74
2022-09-17T03:45:18.498Z,99214.96
2022-09-17T03:48:00.597Z,99220.88
2022-09-17T03:50:43.619Z,99222.80
2022-09-17T03:53:25.413Z,99223.17
2022-09-17T03:56:07.617Z,99222.65
2022-09-17T03:58:49.409Z,99224.11
2022-09-17T04:01:31.257Z,99227.27
2022-09-17T04:04:13.074Z,99223.59
2022-09-17T04:06:55.168Z,99231.80
2022-09-17T04:09:36.991Z,99231.46
2022-09-17T04:12:20.526Z,99234.45
2022-09-17T04:15:02.833Z,99232.02
2022-09-17T04:17:44.932Z,99234.23
2022-09-17T04:20:26.929Z,99231.34
2022-09-17T04:23:11.080Z,99234.52
2022-09-17T04:25:52.973Z,99237.30
2022-09-17T04:28:34.767Z,99237.16
2022-09-17T04:31:16.613Z,99240.86
2022-09-17T04:33:58.792Z,99235.39
2022-09-17T04:36:42.093Z,99234.66
2022-09-17T04:39:23.886Z,99242.04
2022-09-17T04:42:05.679Z,99246.27
2022-09-17T04:44:47.655Z,99248.40
2022-09-17T04:47:29.470Z,99250.17
2022-09-17T04:50:11.366Z,99251.76
2022-09-17T04:52:53.158Z,99254.15
2022-09-17T04:55:35.363Z,99254.36
2022-09-17T04:58:17.361Z,99262.01
2022-09-17T05:00:59.527Z,99266.22
2022-09-17T05:03:41.459Z,99267.65
2022-09-17T05:06:23.252Z,99265.21
2022-09-17T05:09:05.051Z,99265.54
2022-09-17T05:11:46.941Z,99268.66
2022-09-17T05:14:28.734Z,99274.58
2022-09-17T05:17:11.040Z,99277.81
2022-09-17T05:19:53.651Z,99281.92
2022-09-17T05:22:35.958Z,99283.89
2022-09-17T05:25:19.972Z,99288.31
2022-09-17T05:28:03.231Z,99291.50
2022-09-17T05:30:45.125Z,99298.40
2022-09-17T05:33:26.920Z,99299.27
2022-09-17T05:36:08.735Z,99302.45
2022-09-17T05:38:50.608Z,99306.29
2022-09-17T05:41:32.402Z,99308.52
2022-09-17T05:44:17.977Z,99307.23
2022-09-17T05:47:00.345Z,99307.32
2022-09-17T05:49:42.389Z,99307.38
2022-09-17T05:52:28.386Z,99304.66
2022-09-17T05:55:10.276Z,99306.40
2022-09-17T05:57:52.072Z,99310.44
2022-09-17T06:00:33.862Z,99304.41
2022-09-17T06:03:18.210Z,99302.57
2022-09-17T06:06:00.933Z,99304.55
2022-09-17T06:08:43.034Z,99303.10
2022-09-17T06:11:24.828Z,99303.85
2022-09-17T06:14:06.619Z,99306.44
2022-09-17T06:16:48.554Z,99307.95
2022-09-17T06:19:30.957Z,99308.15
2022-09-17T06:22:12.920Z,99312.71
2022-09-17T06:24:54.713Z,99313.02
2022-09-17T06:27:36.813Z,99320.70
2022-09-17T06:30:19.221Z,99319.16
2022-09-17T06:33:01.530Z,99324.23
2022-09-17T06:35:43.729Z,99330.56
2022-09-17T06:38:25.625Z,99330.87
2022-09-17T06:41:07.522Z,99331.86
2022-09-17T06:43:53.513Z,99326.98
2022-09-17T06:46:35.352Z,99332.14
2022-09-17T06:49:18.226Z,99331.64
2022-09-17T06:52:00.020Z,99334.13
2022-09-17T06:54:41.815Z,99332.85
2022-09-17T06:57:23.708Z,99326.39
2022-09-17T07:00:06.083Z,99329.59
2022-09-17T07:03:01.426Z,99327.73
2022-09-17T07:05:45.266Z,99331.81
2022-09-17T07:08:27.265Z,99331.41
2022-09-17T07:11:09.165Z,99336.02
2022-09-17T07:13:51.129Z,99335.16
2022-09-17T07:16:35.277Z,99334.84
2022-09-17T07:19:17.408Z,99336.83
2022-09-17T07:21:59.508Z,99337.91
2022-09-17T07:24:41.711Z,99338.72
2022-09-17T07:27:24.133Z,99334.33
2022-09-17T07:30:07.961Z,99331.31
2022-09-17T07:32:50.474Z,99331.90
2022-09-17T07:35:32.532Z,99334.81
2022-09-17T07:41:42.548Z,99329.56
2022-09-17T07:44:25.670Z,99328.45
2022-09-17T07:47:07.771Z,99333.05
2022-09-17T07:49:49.987Z,99329.91
2022-09-17T07:52:31.868Z,99327.55
2022-09-17T07:55:14.278Z,99330.25
2022-09-17T07:57:56.069Z,99335.23
2022-09-17T08:00:37.863Z,99341.84
2022-09-17T08:03:19.655Z,99346.59
2022-09-17T08:06:06.056Z,99344.55
2022-09-17T08:08:48.591Z,99347.04
2022-09-17T08:11:54.660Z,99346.88
2022-09-17T08:14:33.657Z,99348.91
2022-09-17T08:17:16.073Z,99347.36
2022-09-17T08:19:57.860Z,99346.10
2022-09-17T08:22:40.165Z,99345.49
2022-09-17T08:25:21.957Z,99349.98
2022-09-17T08:28:03.751Z,99348.48
2022-09-17T08:30:46.663Z,99350.02
2022-09-17T08:33:32.362Z,99348.99
2022-09-17T08:36:16.709Z,99352.10
2022-09-17T08:38:58.911Z,99351.77
2022-09-17T08:41:43.701Z,99354.92
2022-09-17T08:44:30.870Z,99358.30
2022-09-17T08:47:25.639Z,99365.75
2022-09-17T08:50:15.576Z,99369.50
2022-09-17T08:53:19.179Z,99365.33
2022-09-17T08:56:13.569Z,99360.91
2022-09-17T08:59:21.891Z,99359.11
2022-09-17T09:02:15.012Z,99354.72
2022-09-17T09:05:02.738Z,99356.99
2022-09-17T09:07:50.480Z,99355.73
2022-09-17T09:10:51.351Z,99349.29
2022-09-17T09:13:42.269Z,99346.27
2022-09-17T09:16:27.786Z,99348.57
2022-09-17T09:19:27.243Z,99350.33
2022-09-17T09:22:35.662Z,99355.42
2022-09-17T09:25:37.218Z,99360.11
2022-09-17T09:28:39.656Z,99362.77
2022-09-17T09:31:48.089Z,99367.23
2022-09-17T09:34:34.043Z,99366.33
2022-09-17T09:37:33.511Z,99363.61
2022-09-17T09:57:10.712Z,99361.30
2022-09-17T10:00:23.737Z,99364.77
2022-09-17T10:03:22.631Z,99364.92
2022-09-17T10:06:07.745Z,99369.35
2022-09-17T10:08:52.185Z,99373.27
2022-09-17T10:11:33.982Z,99368.69
2022-09-17T10:14:28.219Z,99367.38
2022-09-17T10:17:26.935Z,99367.86
2022-09-17T10:20:20.577Z,99372.10
2022-09-17T10:23:06.692Z,99373.23
2022-09-17T10:25:50.330Z,99370.77
2022-09-17T10:28:39.699Z,99372.23
2022-09-17T10:31:24.488Z,99377.52
2022-09-17T10:34:27.612Z,99377.13
2022-09-17T10:37:52.472Z,99380.06
2022-09-17T10:40:38.013Z,99382.30
2022-09-17T10:43:27.399Z,99387.27
2022-09-17T10:46:15.475Z,99382.29
2022-09-17T10:49:28.690Z,99369.73
2022-09-17T10:52:38.262Z,99369.53
2022-09-17T10:55:52.498Z,99365.55
2022-09-17T10:58:51.312Z,99371.05
2022-09-17T11:02:00.179Z,99370.23
2022-09-17T11:05:01.059Z,99375.64
2022-09-17T11:07:59.526Z,99376.78
2022-09-17T11:11:09.827Z,99378.96
2022-09-17T11:13:59.916Z,99378.86
2022-09-17T11:17:08.247Z,99375.55
2022-09-17T11:20:06.845Z,99372.34
2022-09-17T11:23:17.629Z,99367.56
2022-09-17T11:26:28.752Z,99357.52
2022-09-17T11:29:41.143Z,99362.11
2022-09-17T11:32:48.986Z,99356.28
2022-09-17T11:35:45.178Z,99359.88
2022-09-17T11:38:47.863Z,99356.52
2022-09-17T11:41:42.004Z,99356.79
2022-09-17T11:44:50.364Z,99354.40
2022-09-17T11:47:40.198Z,99353.11
2022-09-17T11:50:44.666Z,99357.10
2022-09-17T11:53:36.505Z,99356.20
2022-09-17T11:56:25.789Z,99357.70
2022-09-17T11:59:21.129Z,99360.13
2022-09-17T12:02:09.524Z,99364.56
2022-09-17T12:05:03.659Z,99366.02
2022-09-17T12:07:57.995Z,99367.23
2022-09-17T12:11:03.134Z,99357.05
2022-09-17T12:13:52.946Z,99357.17
2022-09-17T12:16:43.865Z,99356.69
2022-09-17T12:19:44.149Z,99357.60
2022-09-17T12:22:39.547Z,99356.83
2022-09-17T12:25:22.663Z,99349.55
2022-09-17T12:28:21.989Z,99344.71
2022-09-17T12:31:43.552Z,99339.60
2022-09-17T12:34:47.836Z,99332.60
2022-09-17T12:38:08.646Z,99326.84
2022-09-17T12:41:12.760Z,99317.23
2022-09-17T12:44:17.595Z,99310.06
2022-09-17T12:47:18.129Z,99305.88
2022-09-17T12:50:20.090Z,99310.44
2022-09-17T12:53:08.624Z,99316.61
2022-09-17T12:56:02.362Z,99315.01
2022-09-17T12:59:03.262Z,99309.88
2022-09-17T13:01:53.513Z,99302.51
2022-09-17T13:05:00.097Z,99304.77
2022-09-17T13:08:02.404Z,99310.52
2022-09-17T13:16:14.313Z,99320.58
2022-09-17T13:23:31.070Z,99323.29
2022-09-17T13:26:52.719Z,99323.62
2022-09-17T13:29:43.620Z,99325.09
2022-09-17T13:32:37.687Z,99328.77
2022-09-17T13:35:22.246Z,99326.50
2022-09-17T13:38:04.143Z,99325.59
2022-09-17T13:59:54.511Z,99319.08
2022-09-17T14:02:37.014Z,99319.59
2022-09-17T14:05:32.693Z,99324.40
2022-09-17T14:08:28.729Z,99326.71
2022-09-17T14:11:58.537Z,99324.08
2022-09-17T14:19:41.696Z,99319.46
2022-09-17T14:22:28.278Z,99315.55
2022-09-17T14:25:19.323Z,99316.88
2022-09-17T14:28:08.844Z,99315.19
2022-09-17T14:30:51.399Z,99313.59
2022-09-17T14:33:34.420Z,99310.35
2022-09-17T14:36:20.406Z,99313.00
2022-09-17T14:39:04.863Z,99308.73
2022-09-17T14:41:47.274Z,99313.87
2022-09-17T14:44:33.368Z,99312.14
2022-09-17T14:47:19.895Z,99313.63
2022-09-17T14:50:25.533Z,99315.08
2022-09-17T14:53:21.493Z,99313.30
